createdAt,value
2023-06-29T00:00:27.920Z,26.16
2023-06-29T00:01:27.918Z,26.20
2023-06-29T00:02:27.925Z,26.24
2023-06-29T00:03:27.916Z,26.29
2023-06-29T00:04:27.902Z,26.34
2023-06-29T00:05:27.868Z,26.38
2023-06-29T00:06:27.869Z,26.42
2023-06-29T00:07:28.071Z,26.45
2023-06-29T00:08:27.850Z,26.50
2023-06-29T00:09:27.837Z,26.53
2023-06-29T00:10:27.841Z,26.57
2023-06-29T00:11:27.829Z,26.59
2023-06-29T00:12:27.838Z,26.62
2023-06-29T00:13:27.810Z,26.65
2023-06-29T00:14:27.823Z,26.67
2023-06-29T00:15:27.799Z,26.70
2023-06-29T00:16:27.854Z,26.72
2023-06-29T00:17:27.803Z,26.74
2023-06-29T00:18:27.779Z,26.77
2023-06-29T00:19:27.809Z,26.78
2023-06-29T00:20:27.819Z,26.79
2023-06-29T00:21:27.744Z,26.80
2023-06-29T00:22:27.734Z,26.81
2023-06-29T00:23:27.732Z,26.82
2023-06-29T00:24:27.746Z,26.84
2023-06-29T00:25:27.747Z,26.85
2023-06-29T00:26:27.761Z,26.86
2023-06-29T00:27:27.778Z,26.86
2023-06-29T00:28:27.835Z,26.87
2023-06-29T00:29:27.865Z,26.88
2023-06-29T00:30:27.819Z,26.88
2023-06-29T00:31:27.935Z,26.89
2023-06-29T00:32:27.912Z,26.89
2023-06-29T00:33:27.864Z,26.89
2023-06-29T00:34:27.871Z,26.90
2023-06-29T00:35:27.886Z,26.90
2023-06-29T00:36:27.894Z,26.90
2023-06-29T00:37:27.909Z,26.90
2023-06-29T00:38:27.923Z,26.91
2023-06-29T00:39:27.936Z,26.90
2023-06-29T00:40:27.942Z,26.90
2023-06-29T00:41:27.954Z,26.90
2023-06-29T00:42:27.958Z,26.90
2023-06-29T00:43:27.962Z,26.91
2023-06-29T00:44:28.004Z,26.91
2023-06-29T00:45:27.990Z,26.92
2023-06-29T00:46:28.011Z,26.91
2023-06-29T00:47:28.037Z,26.91
2023-06-29T00:48:28.025Z,26.92
2023-06-29T00:49:28.027Z,26.91
2023-06-29T00:50:28.064Z,26.92
2023-06-29T00:51:28.057Z,26.92
2023-06-29T00:52:28.069Z,26.91
2023-06-29T00:53:28.081Z,26.92
2023-06-29T00:54:28.089Z,26.92
2023-06-29T00:55:28.110Z,26.92
2023-06-29T00:56:28.113Z,26.92
2023-06-29T00:57:28.136Z,26.92
2023-06-29T00:58:28.138Z,26.92
2023-06-29T00:59:28.150Z,26.92
2023-06-29T01:00:28.297Z,26.91
2023-06-29T01:01:28.218Z,26.91
2023-06-29T01:02:28.268Z,26.91
2023-06-29T01:03:28.274Z,26.91
2023-06-29T01:04:28.215Z,26.90
2023-06-29T01:05:28.229Z,26.91
2023-06-29T01:06:28.246Z,26.91
2023-06-29T01:07:28.336Z,26.91
2023-06-29T01:08:28.266Z,26.92
2023-06-29T01:09:29.221Z,26.91
2023-06-29T01:10:28.312Z,26.91
2023-06-29T01:11:28.309Z,26.91
2023-06-29T01:12:28.316Z,26.91
2023-06-29T01:13:28.333Z,26.91
2023-06-29T01:14:28.356Z,26.91
2023-06-29T01:15:28.369Z,26.91
2023-06-29T01:16:28.440Z,26.90
2023-06-29T01:17:28.444Z,26.90
2023-06-29T01:18:28.411Z,26.90
2023-06-29T01:19:28.424Z,26.91
2023-06-29T01:20:28.437Z,26.91
2023-06-29T01:21:28.461Z,26.90
2023-06-29T01:22:28.486Z,26.90
2023-06-29T01:23:28.493Z,26.90
2023-06-29T01:24:28.506Z,26.90
2023-06-29T01:25:28.531Z,26.90
2023-06-29T01:26:28.529Z,26.91
2023-06-29T01:27:28.545Z,26.90
2023-06-29T01:28:28.569Z,26.91
2023-06-29T01:29:28.587Z,26.90
2023-06-29T01:30:28.601Z,26.90
2023-06-29T01:31:28.631Z,26.89
2023-06-29T01:32:28.637Z,26.91
2023-06-29T01:33:28.621Z,26.90
2023-06-29T01:34:28.629Z,26.90
2023-06-29T01:35:28.648Z,26.90
2023-06-29T01:36:28.673Z,26.89
2023-06-29T01:37:28.692Z,26.91
2023-06-29T01:38:28.671Z,26.90
2023-06-29T01:39:28.692Z,26.90
2023-06-29T01:40:28.701Z,26.90
2023-06-29T01:41:28.718Z,26.91
2023-06-29T01:42:28.736Z,26.89
2023-06-29T01:43:28.797Z,26.89
2023-06-29T01:44:28.764Z,26.89
2023-06-29T01:45:28.790Z,26.89
2023-06-29T01:46:28.849Z,26.90
2023-06-29T01:47:28.837Z,26.89
2023-06-29T01:48:28.815Z,26.89
2023-06-29T01:49:28.802Z,26.89
2023-06-29T01:50:28.817Z,26.88
2023-06-29T01:51:28.833Z,26.89
2023-06-29T01:52:28.898Z,26.89
2023-06-29T01:53:29.816Z,26.89
2023-06-29T01:54:28.850Z,26.88
2023-06-29T01:55:28.847Z,26.88
2023-06-29T01:56:28.833Z,26.88
2023-06-29T01:57:28.864Z,26.88
2023-06-29T01:58:28.853Z,26.88
2023-06-29T01:59:28.815Z,26.88
2023-06-29T02:00:28.827Z,26.88
2023-06-29T02:01:28.819Z,26.88
2023-06-29T02:02:28.901Z,26.87
2023-06-29T02:03:28.843Z,26.88
2023-06-29T02:04:28.805Z,26.90
2023-06-29T02:05:28.777Z,26.89
2023-06-29T02:06:28.774Z,26.88
2023-06-29T02:07:28.910Z,26.88
2023-06-29T02:08:28.767Z,26.88
2023-06-29T02:09:28.744Z,26.88
2023-06-29T02:10:28.728Z,26.88
2023-06-29T02:11:28.725Z,26.88
2023-06-29T02:12:28.791Z,26.87
2023-06-29T02:13:28.723Z,26.87
2023-06-29T02:14:28.714Z,26.87
2023-06-29T02:15:28.702Z,26.87
2023-06-29T02:16:28.724Z,26.87
2023-06-29T02:17:28.762Z,26.86
2023-06-29T02:18:28.689Z,26.87
2023-06-29T02:19:28.676Z,26.86
2023-06-29T02:20:28.724Z,26.87
2023-06-29T02:21:28.662Z,26.87
2023-06-29T02:22:28.672Z,26.86
2023-06-29T02:23:28.651Z,26.87
2023-06-29T02:24:28.645Z,26.86
2023-06-29T02:25:28.628Z,26.87
2023-06-29T02:26:28.622Z,26.86
2023-06-29T02:27:28.639Z,26.86
2023-06-29T02:28:28.668Z,26.86
2023-06-29T02:29:28.595Z,26.86
2023-06-29T02:30:28.586Z,26.86
2023-06-29T02:31:28.656Z,26.87
2023-06-29T02:32:28.607Z,26.87
2023-06-29T02:33:28.573Z,26.87
2023-06-29T02:34:28.569Z,26.86
2023-06-29T02:35:28.571Z,26.87
2023-06-29T02:36:28.609Z,26.86
2023-06-29T02:37:28.543Z,26.86
2023-06-29T02:38:28.530Z,26.86
2023-06-29T02:39:28.525Z,26.85
2023-06-29T02:40:28.511Z,26.86
2023-06-29T02:41:28.503Z,26.86
2023-06-29T02:42:28.533Z,26.85
2023-06-29T02:43:28.494Z,26.85
2023-06-29T02:44:28.488Z,26.85
2023-06-29T02:45:28.476Z,26.85
2023-06-29T02:46:28.528Z,26.86
2023-06-29T02:47:28.504Z,26.86
2023-06-29T02:48:28.476Z,26.85
2023-06-29T02:49:28.451Z,26.85
2023-06-29T02:50:28.442Z,26.85
2023-06-29T02:51:28.426Z,26.85
2023-06-29T02:52:28.444Z,26.84
2023-06-29T02:53:28.440Z,26.84
2023-06-29T02:54:28.406Z,26.84
2023-06-29T02:55:28.419Z,26.84
2023-06-29T02:56:28.438Z,26.84
2023-06-29T02:57:28.465Z,26.85
2023-06-29T02:58:28.483Z,26.85
2023-06-29T02:59:28.517Z,26.84
2023-06-29T03:00:28.530Z,26.84
2023-06-29T03:01:28.584Z,26.84
2023-06-29T03:02:28.607Z,26.84
2023-06-29T03:03:28.766Z,26.84
2023-06-29T03:04:28.626Z,26.83
2023-06-29T03:05:28.644Z,26.84
2023-06-29T03:06:28.653Z,26.84
2023-06-29T03:07:28.734Z,26.84
2023-06-29T03:08:28.715Z,26.84
2023-06-29T03:09:28.715Z,26.84
2023-06-29T03:10:28.752Z,26.83
2023-06-29T03:11:28.745Z,26.83
2023-06-29T03:12:28.761Z,26.82
2023-06-29T03:13:28.777Z,26.83
2023-06-29T03:14:28.870Z,26.83
2023-06-29T03:15:28.814Z,26.83
2023-06-29T03:16:28.878Z,26.83
2023-06-29T03:17:28.986Z,26.82
2023-06-29T03:18:28.881Z,26.82
2023-06-29T03:19:28.928Z,26.82
2023-06-29T03:20:28.927Z,26.82
2023-06-29T03:21:28.949Z,26.82
2023-06-29T03:22:28.964Z,26.82
2023-06-29T03:23:29.003Z,26.82
2023-06-29T03:24:29.032Z,26.82
2023-06-29T03:25:29.054Z,26.82
2023-06-29T03:26:29.067Z,26.81
2023-06-29T03:27:29.077Z,26.82
2023-06-29T03:28:29.102Z,26.81
2023-06-29T03:29:29.150Z,26.81
2023-06-29T03:30:29.164Z,26.81
2023-06-29T03:31:29.199Z,26.82
2023-06-29T03:32:29.239Z,26.81
2023-06-29T03:33:29.223Z,26.81
2023-06-29T03:34:29.354Z,26.81
2023-06-29T03:35:29.282Z,26.81
2023-06-29T03:36:29.299Z,26.80
2023-06-29T03:37:29.314Z,26.81
2023-06-29T03:38:29.341Z,26.81
2023-06-29T03:39:29.357Z,26.81
2023-06-29T03:40:29.416Z,26.81
2023-06-29T03:41:29.418Z,26.81
2023-06-29T03:42:29.439Z,26.81
2023-06-29T03:43:29.462Z,26.80
2023-06-29T03:44:29.492Z,26.80
2023-06-29T03:45:29.537Z,26.81
2023-06-29T03:46:29.548Z,26.82
2023-06-29T03:47:29.679Z,26.81
2023-06-29T03:48:29.712Z,26.81
2023-06-29T03:49:29.651Z,26.80
2023-06-29T03:50:29.631Z,26.81
2023-06-29T03:51:29.658Z,26.81
2023-06-29T03:52:29.686Z,26.80
2023-06-29T03:53:29.764Z,26.80
2023-06-29T03:54:29.729Z,26.80
2023-06-29T03:55:29.752Z,26.81
2023-06-29T03:56:29.822Z,26.81
2023-06-29T03:57:29.809Z,26.80
2023-06-29T03:58:29.839Z,26.81
2023-06-29T03:59:29.866Z,26.81
2023-06-29T04:00:29.896Z,26.80
2023-06-29T04:01:29.953Z,26.80
2023-06-29T04:02:30.061Z,26.80
2023-06-29T04:03:30.049Z,26.80
2023-06-29T04:04:30.011Z,26.80
2023-06-29T04:05:30.043Z,26.80
2023-06-29T04:06:30.079Z,26.81
2023-06-29T04:07:30.221Z,26.81
2023-06-29T04:08:30.126Z,26.81
2023-06-29T04:09:30.169Z,26.80
2023-06-29T04:10:30.170Z,26.80
2023-06-29T04:11:30.200Z,26.79
2023-06-29T04:12:30.320Z,26.81
2023-06-29T04:13:30.241Z,26.80
2023-06-29T04:14:30.276Z,26.81
2023-06-29T04:15:30.302Z,26.81
2023-06-29T04:16:30.381Z,26.81
2023-06-29T04:17:30.364Z,26.81
2023-06-29T04:18:30.379Z,26.81
2023-06-29T04:19:30.390Z,26.81
2023-06-29T04:20:30.412Z,26.81
2023-06-29T04:21:30.453Z,26.82
2023-06-29T04:22:30.442Z,26.81
2023-06-29T04:23:30.477Z,26.81
2023-06-29T04:24:30.490Z,26.81
2023-06-29T04:25:30.512Z,26.81
2023-06-29T04:26:30.571Z,26.81
2023-06-29T04:27:33.151Z,26.80
2023-06-29T04:28:30.584Z,26.80
2023-06-29T04:29:30.543Z,26.80
2023-06-29T04:30:30.568Z,26.80
2023-06-29T04:31:30.537Z,26.80
2023-06-29T04:32:30.575Z,26.80
2023-06-29T04:33:30.547Z,26.80
2023-06-29T04:34:30.513Z,26.80
2023-06-29T04:35:30.499Z,26.80
2023-06-29T04:36:30.495Z,26.80
2023-06-29T04:37:30.498Z,26.80
2023-06-29T04:38:30.495Z,26.80
2023-06-29T04:39:30.493Z,26.80
2023-06-29T04:40:30.460Z,26.80
2023-06-29T04:41:30.458Z,26.81
2023-06-29T04:42:30.456Z,26.80
2023-06-29T04:43:30.442Z,26.80
2023-06-29T04:44:30.459Z,26.81
2023-06-29T04:45:30.447Z,26.80
2023-06-29T04:46:30.499Z,26.80
2023-06-29T04:47:30.489Z,26.80
2023-06-29T04:48:30.447Z,26.80
2023-06-29T04:49:30.473Z,26.80
2023-06-29T04:50:30.390Z,26.80
2023-06-29T04:51:30.431Z,26.80
2023-06-29T04:52:30.384Z,26.81
2023-06-29T04:53:30.396Z,26.81
2023-06-29T04:54:30.385Z,26.80
2023-06-29T04:55:30.371Z,26.80
2023-06-29T04:56:30.450Z,26.81
2023-06-29T04:57:30.349Z,26.80
2023-06-29T04:58:30.372Z,26.81
2023-06-29T04:59:30.348Z,26.80
2023-06-29T05:00:30.353Z,26.80
2023-06-29T05:01:30.341Z,26.80
2023-06-29T05:02:30.467Z,26.80
2023-06-29T05:03:30.379Z,26.80
2023-06-29T05:04:30.502Z,26.80
2023-06-29T05:05:30.328Z,26.80
2023-06-29T05:06:30.362Z,26.80
2023-06-29T05:07:30.492Z,26.79
2023-06-29T05:08:30.436Z,26.80
2023-06-29T05:09:30.473Z,26.79
2023-06-29T05:10:30.470Z,26.80
2023-06-29T05:11:32.048Z,26.80
2023-06-29T05:12:30.493Z,26.79
2023-06-29T05:13:30.507Z,26.80
2023-06-29T05:14:30.465Z,26.80
2023-06-29T05:15:30.498Z,26.80
2023-06-29T05:16:30.575Z,26.80
2023-06-29T05:17:31.475Z,26.80
2023-06-29T05:18:30.491Z,26.78
2023-06-29T05:19:30.435Z,26.80
2023-06-29T05:20:30.428Z,26.80
2023-06-29T05:21:30.889Z,26.80
2023-06-29T05:22:30.408Z,26.80
2023-06-29T05:23:30.407Z,26.77
2023-06-29T05:24:30.404Z,26.73
2023-06-29T05:25:30.856Z,26.70
2023-06-29T05:26:30.395Z,26.65
2023-06-29T05:27:30.367Z,26.59
2023-06-29T05:28:30.398Z,26.54
2023-06-29T05:29:30.359Z,26.49
2023-06-29T05:30:30.380Z,26.44
2023-06-29T05:31:30.379Z,26.39
2023-06-29T05:32:30.425Z,26.35
2023-06-29T05:33:30.337Z,26.31
2023-06-29T05:34:30.333Z,26.26
2023-06-29T05:35:30.382Z,26.22
2023-06-29T05:36:30.336Z,26.18
2023-06-29T05:37:30.294Z,26.14
2023-06-29T05:38:30.304Z,26.08
2023-06-29T05:39:30.289Z,25.97
2023-06-29T05:40:30.276Z,25.91
2023-06-29T05:41:30.262Z,25.91
2023-06-29T05:42:30.266Z,25.90
2023-06-29T05:43:30.269Z,25.90
2023-06-29T05:44:30.259Z,25.89
2023-06-29T05:45:30.239Z,25.87
2023-06-29T05:46:30.364Z,25.87
2023-06-29T05:47:30.269Z,25.86
2023-06-29T05:48:30.358Z,25.83
2023-06-29T05:49:30.205Z,25.77
2023-06-29T05:50:30.214Z,25.72
2023-06-29T05:51:30.248Z,25.71
2023-06-29T05:52:30.292Z,25.71
2023-06-29T05:53:30.343Z,25.66
2023-06-29T05:54:30.365Z,25.64
2023-06-29T05:55:30.392Z,25.61
2023-06-29T05:56:30.423Z,25.50
2023-06-29T05:57:30.460Z,25.37
2023-06-29T05:58:30.837Z,25.20
2023-06-29T05:59:30.505Z,25.01
2023-06-29T06:00:30.624Z,24.83
2023-06-29T06:01:30.680Z,24.68
2023-06-29T06:02:30.999Z,24.56
2023-06-29T06:03:30.895Z,24.46
2023-06-29T06:04:30.770Z,24.36
2023-06-29T06:05:30.878Z,24.20
2023-06-29T06:06:30.699Z,24.06
2023-06-29T06:07:30.782Z,23.92
2023-06-29T06:08:30.678Z,23.79
2023-06-29T06:09:30.716Z,23.69
2023-06-29T06:10:31.191Z,23.67
2023-06-29T06:11:31.700Z,23.66
2023-06-29T06:12:30.713Z,23.62
2023-06-29T06:13:30.721Z,23.56
2023-06-29T06:14:30.776Z,23.53
2023-06-29T06:15:30.843Z,23.44
2023-06-29T06:16:30.902Z,23.34
2023-06-29T06:17:30.931Z,23.28
2023-06-29T06:18:30.953Z,23.22
2023-06-29T06:19:31.004Z,23.28
2023-06-29T06:20:32.076Z,23.32
2023-06-29T06:21:31.090Z,23.26
2023-06-29T06:22:31.162Z,23.28
2023-06-29T06:23:33.998Z,23.23
2023-06-29T06:24:31.202Z,23.25
2023-06-29T06:25:31.405Z,23.27
2023-06-29T06:26:31.360Z,23.25
2023-06-29T06:27:31.253Z,23.23
2023-06-29T06:28:31.148Z,23.22
2023-06-29T06:29:31.163Z,23.25
2023-06-29T06:30:31.137Z,23.26
2023-06-29T06:31:34.783Z,23.31
2023-06-29T06:32:31.173Z,23.31
2023-06-29T06:33:31.110Z,23.29
2023-06-29T06:34:31.099Z,23.31
2023-06-29T06:35:31.087Z,23.33
2023-06-29T06:36:31.116Z,23.31
2023-06-29T06:37:31.072Z,23.34
2023-06-29T06:38:48.388Z,23.39
2023-06-29T06:39:31.055Z,23.41
2023-06-29T06:40:31.057Z,23.40
2023-06-29T06:41:31.037Z,23.31
2023-06-29T06:42:31.033Z,23.24
2023-06-29T06:43:31.355Z,23.24
2023-06-29T06:44:31.023Z,23.31
2023-06-29T06:45:31.012Z,23.42
2023-06-29T06:46:31.028Z,23.50
2023-06-29T06:47:31.123Z,23.60
2023-06-29T06:48:31.344Z,23.70
2023-06-29T06:49:31.004Z,23.80
2023-06-29T06:50:30.986Z,23.91
2023-06-29T06:51:30.970Z,24.01
2023-06-29T06:52:31.015Z,24.11
2023-06-29T06:53:30.953Z,24.21
2023-06-29T06:54:30.944Z,24.30
2023-06-29T06:55:30.975Z,24.40
2023-06-29T06:56:30.934Z,24.47
2023-06-29T06:57:30.935Z,24.55
2023-06-29T06:58:31.353Z,24.63
2023-06-29T06:59:30.920Z,24.70
2023-06-29T07:00:31.847Z,24.77
2023-06-29T07:01:31.510Z,24.83
2023-06-29T07:02:31.002Z,24.89
2023-06-29T07:03:30.911Z,24.95
2023-06-29T07:04:30.880Z,25.00
2023-06-29T07:05:30.913Z,25.06
2023-06-29T07:06:31.350Z,25.09
2023-06-29T07:07:30.907Z,25.14
2023-06-29T07:08:31.119Z,25.18
2023-06-29T07:09:31.332Z,25.22
2023-06-29T07:10:30.827Z,25.25
2023-06-29T07:11:30.819Z,25.29
2023-06-29T07:12:30.840Z,25.33
2023-06-29T07:13:31.373Z,25.36
2023-06-29T07:14:30.939Z,25.38
2023-06-29T07:15:30.985Z,25.41
2023-06-29T07:16:31.104Z,25.45
2023-06-29T07:17:31.456Z,25.47
2023-06-29T07:18:31.355Z,25.49
2023-06-29T07:21:30.174Z,25.55
2023-06-29T07:24:30.205Z,25.60
2023-06-29T07:25:31.138Z,25.63
2023-06-29T07:26:31.170Z,25.64
2023-06-29T07:27:31.150Z,25.66
2023-06-29T07:28:31.400Z,25.68
2023-06-29T07:29:31.102Z,25.69
2023-06-29T07:30:31.138Z,25.70
2023-06-29T07:31:31.227Z,25.71
2023-06-29T07:32:31.110Z,25.72
2023-06-29T07:33:33.219Z,25.74
2023-06-29T07:34:31.076Z,25.75
2023-06-29T07:35:31.086Z,25.74
2023-06-29T07:36:31.330Z,25.72
2023-06-29T07:37:31.054Z,25.74
2023-06-29T07:38:31.434Z,25.76
2023-06-29T07:39:31.051Z,25.75
2023-06-29T07:40:31.418Z,25.69
2023-06-29T07:41:31.030Z,25.54
2023-06-29T07:42:39.560Z,25.42
2023-06-29T07:43:31.037Z,25.38
2023-06-29T07:44:31.404Z,25.35
2023-06-29T07:45:30.996Z,25.28
2023-06-29T07:46:30.990Z,25.24
2023-06-29T07:47:31.074Z,25.14
2023-06-29T07:48:31.220Z,25.05
2023-06-29T07:49:31.372Z,24.83
2023-06-29T07:50:30.959Z,24.88
2023-06-29T07:51:30.948Z,24.96
2023-06-29T07:52:30.939Z,25.04
2023-06-29T07:53:31.373Z,25.12
2023-06-29T07:54:31.375Z,25.20
2023-06-29T07:55:30.928Z,25.27
2023-06-29T07:59:29.896Z,25.51
2023-06-29T08:00:30.896Z,25.57
2023-06-29T08:01:31.167Z,25.61
2023-06-29T08:02:30.925Z,25.67
2023-06-29T08:03:30.923Z,25.71
2023-06-29T08:07:29.883Z,25.86
2023-06-29T08:08:30.931Z,25.89
2023-06-29T08:09:30.840Z,25.93
2023-06-29T08:10:30.836Z,25.95
2023-06-29T08:11:30.955Z,26.00
2023-06-29T08:12:30.837Z,26.03
2023-06-29T08:13:30.802Z,26.05
2023-06-29T08:14:30.798Z,26.07
2023-06-29T08:15:30.796Z,26.11
2023-06-29T08:16:30.810Z,26.12
2023-06-29T08:17:30.818Z,26.13
2023-06-29T08:18:30.822Z,26.14
2023-06-29T08:19:30.779Z,26.14
2023-06-29T08:20:30.769Z,26.13
2023-06-29T08:21:30.758Z,26.12
2023-06-29T08:22:30.748Z,26.12
2023-06-29T08:23:30.743Z,26.11
2023-06-29T08:24:30.893Z,26.10
2023-06-29T08:25:30.734Z,26.08
2023-06-29T08:26:30.729Z,26.08
2023-06-29T08:27:30.713Z,26.07
2023-06-29T08:28:30.725Z,26.07
2023-06-29T08:29:30.717Z,26.07
2023-06-29T08:30:30.692Z,26.07
2023-06-29T08:31:30.729Z,26.06
2023-06-29T08:32:30.706Z,26.07
2023-06-29T08:33:30.772Z,26.07
2023-06-29T08:34:30.665Z,26.07
2023-06-29T08:35:30.657Z,26.09
2023-06-29T08:36:30.923Z,26.09
2023-06-29T08:37:30.643Z,26.09
2023-06-29T08:38:30.892Z,26.10
2023-06-29T08:39:30.624Z,26.10
2023-06-29T08:40:30.617Z,26.11
2023-06-29T08:41:30.640Z,26.06
2023-06-29T08:42:30.613Z,26.01
2023-06-29T08:43:30.904Z,25.99
2023-06-29T08:44:30.613Z,25.96
2023-06-29T08:45:30.897Z,25.94
2023-06-29T08:46:30.618Z,25.93
2023-06-29T08:47:30.601Z,25.92
2023-06-29T08:48:30.969Z,25.90
2023-06-29T08:49:30.564Z,25.89
2023-06-29T08:50:30.552Z,25.88
2023-06-29T08:51:30.540Z,25.87
2023-06-29T08:52:30.555Z,25.87
2023-06-29T08:53:30.988Z,25.86
2023-06-29T08:54:30.610Z,25.85
2023-06-29T08:55:30.911Z,25.85
2023-06-29T08:56:30.682Z,25.85
2023-06-29T08:57:31.277Z,25.85
2023-06-29T08:58:30.898Z,25.84
2023-06-29T08:59:30.757Z,25.85
2023-06-29T09:00:30.828Z,25.85
2023-06-29T09:01:30.856Z,25.85
2023-06-29T09:02:30.937Z,25.84
2023-06-29T09:03:30.994Z,25.83
2023-06-29T09:04:30.883Z,25.84
2023-06-29T09:05:30.911Z,25.84
2023-06-29T09:06:30.944Z,25.84
2023-06-29T09:07:31.009Z,25.84
2023-06-29T09:08:31.429Z,25.83
2023-06-29T09:09:31.047Z,25.84
2023-06-29T09:10:31.046Z,25.84
2023-06-29T09:11:31.066Z,25.84
2023-06-29T09:12:31.091Z,25.84
2023-06-29T09:13:31.126Z,25.83
2023-06-29T09:14:31.195Z,25.84
2023-06-29T09:15:31.411Z,25.84
2023-06-29T09:16:31.335Z,25.84
2023-06-29T09:17:31.256Z,25.84
2023-06-29T09:18:31.267Z,25.85
2023-06-29T09:19:31.307Z,25.85
2023-06-29T09:20:31.415Z,25.85
2023-06-29T09:21:31.353Z,25.86
2023-06-29T09:22:31.377Z,25.86
2023-06-29T09:23:31.454Z,25.86
2023-06-29T09:24:31.435Z,25.86
2023-06-29T09:25:34.524Z,25.85
2023-06-29T09:26:31.578Z,25.85
2023-06-29T09:27:31.455Z,25.86
2023-06-29T09:28:31.438Z,25.86
2023-06-29T09:29:31.460Z,25.86
2023-06-29T09:30:31.467Z,25.85
2023-06-29T09:31:31.498Z,25.85
2023-06-29T09:32:31.488Z,25.84
2023-06-29T09:33:31.441Z,25.84
2023-06-29T09:34:31.405Z,25.84
2023-06-29T09:35:31.395Z,25.84
2023-06-29T09:36:31.415Z,25.84
2023-06-29T09:37:31.387Z,25.85
2023-06-29T09:38:31.413Z,25.85
2023-06-29T09:39:31.374Z,25.86
2023-06-29T09:40:31.400Z,25.85
2023-06-29T09:41:31.349Z,25.86
2023-06-29T09:42:31.383Z,25.87
2023-06-29T09:43:31.442Z,25.88
2023-06-29T09:44:31.331Z,25.89
2023-06-29T09:45:31.331Z,25.88
2023-06-29T09:46:31.348Z,25.89
2023-06-29T09:49:30.418Z,25.92
2023-06-29T09:50:31.439Z,25.92
2023-06-29T09:51:31.307Z,25.92
2023-06-29T09:52:31.312Z,25.93
2023-06-29T09:53:31.310Z,25.93
2023-06-29T09:54:31.420Z,25.94
2023-06-29T09:55:31.360Z,25.95
2023-06-29T09:56:31.263Z,25.95
2023-06-29T09:57:31.262Z,25.95
2023-06-29T09:58:31.276Z,25.95
2023-06-29T09:59:31.261Z,25.95
2023-06-29T10:00:31.236Z,25.95
2023-06-29T10:01:31.260Z,25.94
2023-06-29T10:02:31.347Z,25.96
2023-06-29T10:03:31.336Z,25.96
2023-06-29T10:04:31.521Z,25.96
2023-06-29T10:05:31.220Z,25.97
2023-06-29T10:06:31.194Z,25.99
2023-06-29T10:07:31.238Z,25.99
2023-06-29T10:08:31.458Z,25.98
2023-06-29T10:09:31.421Z,25.99
2023-06-29T10:10:31.179Z,26.00
2023-06-29T10:11:31.164Z,26.01
2023-06-29T10:12:31.154Z,26.01
2023-06-29T10:13:31.433Z,26.01
2023-06-29T10:14:31.163Z,26.01
2023-06-29T10:15:31.176Z,26.01
2023-06-29T10:16:31.176Z,26.02
2023-06-29T10:17:31.216Z,26.03
2023-06-29T10:18:31.435Z,26.05
2023-06-29T10:19:31.159Z,26.04
2023-06-29T10:20:31.158Z,26.04
2023-06-29T10:21:31.086Z,26.05
2023-06-29T10:22:31.096Z,26.05
2023-06-29T10:23:31.445Z,26.07
2023-06-29T10:24:31.071Z,26.07
2023-06-29T10:25:31.066Z,26.08
2023-06-29T10:26:31.049Z,26.11
2023-06-29T10:27:31.039Z,26.12
2023-06-29T10:28:31.039Z,26.13
2023-06-29T10:29:31.025Z,26.14
2023-06-29T10:30:31.033Z,26.16
2023-06-29T10:31:31.531Z,26.16
2023-06-29T10:32:31.020Z,26.16
2023-06-29T10:33:31.440Z,26.17
2023-06-29T10:34:31.002Z,26.17
2023-06-29T10:35:30.993Z,26.18
2023-06-29T10:36:31.035Z,26.19
2023-06-29T10:37:30.988Z,26.19
2023-06-29T10:38:30.965Z,26.19
2023-06-29T10:39:30.974Z,26.20
2023-06-29T10:40:30.949Z,26.20
2023-06-29T10:41:30.952Z,26.21
2023-06-29T10:42:30.939Z,26.21
2023-06-29T10:43:30.935Z,26.22
2023-06-29T10:44:30.929Z,26.23
2023-06-29T10:45:30.932Z,26.20
2023-06-29T10:46:31.061Z,26.21
2023-06-29T10:47:30.954Z,26.24
2023-06-29T10:48:42.794Z,26.25
2023-06-29T10:49:30.893Z,26.25
2023-06-29T10:50:30.876Z,26.26
2023-06-29T10:51:30.868Z,26.27
2023-06-29T10:52:30.916Z,26.28
2023-06-29T10:53:31.193Z,26.28
2023-06-29T10:54:31.020Z,26.29
2023-06-29T10:55:30.840Z,26.30
2023-06-29T10:56:30.837Z,26.31
2023-06-29T10:57:30.825Z,26.32
2023-06-29T10:58:30.816Z,26.33
2023-06-29T10:59:30.895Z,26.34
2023-06-29T11:00:30.810Z,26.34
2023-06-29T11:01:30.867Z,26.35
2023-06-29T11:02:30.854Z,26.35
2023-06-29T11:03:30.986Z,26.36
2023-06-29T11:04:30.811Z,26.36
2023-06-29T11:05:30.761Z,26.36
2023-06-29T11:06:34.214Z,26.37
2023-06-29T11:07:30.814Z,26.36
2023-06-29T11:08:30.997Z,26.38
2023-06-29T11:09:30.744Z,26.38
2023-06-29T11:10:30.735Z,26.39
2023-06-29T11:11:30.718Z,26.39
2023-06-29T11:12:30.712Z,26.40
2023-06-29T11:13:30.945Z,26.40
2023-06-29T11:14:30.715Z,26.40
2023-06-29T11:15:30.695Z,26.40
2023-06-29T11:16:30.774Z,26.40
2023-06-29T11:17:30.772Z,26.41
2023-06-29T11:18:30.958Z,26.41
2023-06-29T11:19:30.872Z,26.42
2023-06-29T11:20:30.920Z,26.42
2023-06-29T11:21:30.985Z,26.42
2023-06-29T11:22:31.055Z,26.42
2023-06-29T11:23:31.109Z,26.42
2023-06-29T11:24:31.205Z,26.43
2023-06-29T11:25:31.232Z,26.43
2023-06-29T11:26:31.281Z,26.43
2023-06-29T11:27:31.351Z,26.43
2023-06-29T11:28:31.405Z,26.44
2023-06-29T11:29:31.458Z,26.44
2023-06-29T11:30:31.527Z,26.43
2023-06-29T11:31:31.613Z,26.44
2023-06-29T11:32:31.664Z,26.44
2023-06-29T11:34:31.692Z,26.45
2023-06-29T11:35:31.712Z,26.45
2023-06-29T11:36:31.680Z,26.45
2023-06-29T11:37:31.678Z,26.46
2023-06-29T11:38:32.132Z,26.46
2023-06-29T11:39:31.810Z,26.46
2023-06-29T11:40:31.696Z,26.46
2023-06-29T11:41:31.646Z,26.47
2023-06-29T11:42:31.715Z,26.48
2023-06-29T11:43:32.134Z,26.47
2023-06-29T11:44:31.625Z,26.47
2023-06-29T11:45:31.631Z,26.48
2023-06-29T11:46:31.665Z,26.48
2023-06-29T11:47:33.670Z,26.49
2023-06-29T11:48:31.782Z,26.48
2023-06-29T11:49:31.600Z,26.48
2023-06-29T11:50:31.637Z,26.49
2023-06-29T11:51:31.591Z,26.49
2023-06-29T11:52:31.587Z,26.49
2023-06-29T11:53:31.987Z,26.50
2023-06-29T11:54:31.587Z,26.50
2023-06-29T11:55:31.570Z,26.50
2023-06-29T11:56:31.602Z,26.51
2023-06-29T11:57:31.555Z,26.51
2023-06-29T11:58:31.586Z,26.52
2023-06-29T11:59:31.588Z,26.52
2023-06-29T12:00:31.595Z,26.52
2023-06-29T12:01:31.552Z,26.53
2023-06-29T12:02:31.566Z,26.52
2023-06-29T12:03:31.694Z,26.53
2023-06-29T12:04:31.632Z,26.54
2023-06-29T12:05:31.606Z,26.54
2023-06-29T12:06:31.652Z,26.54
2023-06-29T12:07:32.064Z,26.54
2023-06-29T12:08:31.885Z,26.55
2023-06-29T12:09:31.817Z,26.55
2023-06-29T12:10:31.861Z,26.55
2023-06-29T12:11:31.902Z,26.55
2023-06-29T12:12:31.994Z,26.55
2023-06-29T12:13:32.008Z,26.56
2023-06-29T12:14:32.056Z,26.56
2023-06-29T12:15:32.131Z,26.57
2023-06-29T12:18:35.301Z,26.58
2023-06-29T12:19:32.349Z,26.57
2023-06-29T12:20:32.380Z,26.57
2023-06-29T12:21:32.265Z,26.59
2023-06-29T12:22:32.168Z,26.58
2023-06-29T12:23:32.115Z,26.58
2023-06-29T12:24:34.181Z,26.58
2023-06-29T12:25:32.095Z,26.59
2023-06-29T12:26:32.079Z,26.59
2023-06-29T12:27:32.096Z,26.59
2023-06-29T12:28:32.139Z,26.60
2023-06-29T12:29:32.073Z,26.60
2023-06-29T12:30:32.066Z,26.60
2023-06-29T12:31:32.055Z,26.61
2023-06-29T12:32:32.090Z,26.60
2023-06-29T12:33:32.565Z,26.61
2023-06-29T12:34:32.049Z,26.62
2023-06-29T12:35:32.030Z,26.62
2023-06-29T12:36:32.016Z,26.63
2023-06-29T12:37:32.016Z,26.62
2023-06-29T12:38:32.003Z,26.63
2023-06-29T12:39:32.544Z,26.61
2023-06-29T12:40:33.595Z,26.63
2023-06-29T12:41:31.992Z,26.63
2023-06-29T12:42:31.980Z,26.62
2023-06-29T12:43:31.969Z,26.62
2023-06-29T12:44:31.992Z,26.63
2023-06-29T12:45:31.968Z,26.64
2023-06-29T12:46:34.398Z,26.65
2023-06-29T12:47:32.109Z,26.65
2023-06-29T12:48:31.932Z,26.64
2023-06-29T12:49:32.481Z,26.64
2023-06-29T12:50:31.923Z,26.64
2023-06-29T12:51:31.935Z,26.65
2023-06-29T12:52:31.933Z,26.66
2023-06-29T12:53:31.891Z,26.66
2023-06-29T12:54:31.889Z,26.67
2023-06-29T12:55:31.885Z,26.67
2023-06-29T12:56:31.876Z,26.68
2023-06-29T12:57:31.902Z,26.69
2023-06-29T12:58:33.417Z,26.69
2023-06-29T12:59:31.862Z,26.69
2023-06-29T13:00:31.889Z,26.70
2023-06-29T13:01:31.934Z,26.70
2023-06-29T13:02:31.995Z,26.71
2023-06-29T13:03:32.029Z,26.72
2023-06-29T13:04:34.908Z,26.72
2023-06-29T13:05:31.816Z,26.72
2023-06-29T13:06:31.836Z,26.72
2023-06-29T13:07:31.878Z,26.72